RYR85KM EGGW-LEMI
Flight info
| Callsign | RYR85KM |
|---|---|
| Flight time | N/A |
| Altitude | 37000 |
| Route | RODNI N27 ICTAM Q63 CPT UN859 SOPIL DCT BALAN DCT LMG DCT PIMQO DCT AGN DCT ANETO N860 VLC L34 ALT |
| Aircraft | B738/M-SDE3FGILRWY/SB1 |
Departure
| Time | 2026-04-27 17:46 |
|---|---|
| Airport | London Luton Airport (EGGW) |
Arrival
| Time | N/A |
|---|---|
| Airport | Region of Murcia International Airport (LEMI) |
| Time | Latitude | Longitude | Altitude | Speed | Heading |
|---|---|---|---|---|---|
| 2026-04-27 17:08 | 51.87841 | -0.37841 | 535 ft | 0 kts | 29° |
| 2026-04-27 17:38 | 51.87840 | -0.37842 | 535 ft | 2 kts | 29° |
| 2026-04-27 17:38 | 51.87820 | -0.37866 | 535 ft | 4 kts | 56° |
| 2026-04-27 17:38 | 51.87811 | -0.37904 | 535 ft | 4 kts | 86° |
| 2026-04-27 17:38 | 51.87811 | -0.37913 | 535 ft | 1 kts | 88° |
| 2026-04-27 17:40 | 51.87809 | -0.37906 | 536 ft | 3 kts | 104° |
| 2026-04-27 17:41 | 51.87781 | -0.37836 | 535 ft | 10 kts | 122° |
| 2026-04-27 17:41 | 51.87751 | -0.37739 | 535 ft | 10 kts | 114° |
| 2026-04-27 17:41 | 51.87724 | -0.37641 | 535 ft | 10 kts | 114° |
| 2026-04-27 17:41 | 51.87693 | -0.37536 | 535 ft | 12 kts | 115° |
| 2026-04-27 17:42 | 51.87635 | -0.37458 | 535 ft | 11 kts | 159° |
| 2026-04-27 17:42 | 51.87561 | -0.37458 | 535 ft | 11 kts | 194° |
| 2026-04-27 17:42 | 51.87507 | -0.37530 | 535 ft | 10 kts | 247° |
| 2026-04-27 17:42 | 51.87487 | -0.37641 | 535 ft | 11 kts | 253° |
| 2026-04-27 17:43 | 51.87463 | -0.37769 | 536 ft | 13 kts | 254° |
| 2026-04-27 17:43 | 51.87438 | -0.37924 | 536 ft | 15 kts | 256° |
| 2026-04-27 17:43 | 51.87391 | -0.38046 | 536 ft | 13 kts | 216° |
| 2026-04-27 17:43 | 51.87312 | -0.38104 | 536 ft | 12 kts | 193° |
| 2026-04-27 17:44 | 51.87241 | -0.38163 | 537 ft | 12 kts | 240° |
| 2026-04-27 17:44 | 51.87233 | -0.38279 | 536 ft | 4 kts | 282° |
| 2026-04-27 17:44 | 51.87230 | -0.38325 | 536 ft | 4 kts | 244° |
| 2026-04-27 17:44 | 51.87207 | -0.38340 | 536 ft | 4 kts | 166° |
| 2026-04-27 17:45 | 51.87198 | -0.38305 | 536 ft | 4 kts | 80° |
| 2026-04-27 17:45 | 51.87213 | -0.38274 | 536 ft | 3 kts | 52° |
| 2026-04-27 17:45 | 51.87229 | -0.38200 | 537 ft | 14 kts | 75° |
| 2026-04-27 17:45 | 51.87323 | -0.37665 | 535 ft | 86 kts | 74° |
| 2026-04-27 17:46 | 51.87545 | -0.36381 | 534 ft | 149 kts | 74° |
| 2026-04-27 17:46 | 51.87865 | -0.34601 | 955 ft | 169 kts | 71° |
| 2026-04-27 17:46 | 51.88177 | -0.32772 | 1819 ft | 169 kts | 70° |
| 2026-04-27 17:46 | 51.88517 | -0.30856 | 2454 ft | 185 kts | 69° |
| 2026-04-27 17:47 | 51.88907 | -0.28774 | 2976 ft | 200 kts | 69° |
| 2026-04-27 17:47 | 51.89181 | -0.27292 | 3144 ft | 216 kts | 72° |
| 2026-04-27 17:47 | 51.89084 | -0.23860 | 3647 ft | 250 kts | 110° |
| 2026-04-27 17:47 | 51.88010 | -0.21410 | 3925 ft | 286 kts | 139° |
| 2026-04-27 17:48 | 51.86220 | -0.19971 | 4805 ft | 289 kts | 171° |
| 2026-04-27 17:48 | 51.84258 | -0.20128 | 5969 ft | 280 kts | 202° |
| 2026-04-27 17:48 | 51.82663 | -0.21825 | 6912 ft | 275 kts | 233° |
| 2026-04-27 17:48 | 51.81883 | -0.24533 | 7954 ft | 265 kts | 264° |
| 2026-04-27 17:49 | 51.82031 | -0.27492 | 8689 ft | 268 kts | 290° |
| 2026-04-27 17:49 | 51.82649 | -0.30331 | 9668 ft | 265 kts | 284° |
| 2026-04-27 17:49 | 51.82814 | -0.33307 | 10510 ft | 271 kts | 269° |
| 2026-04-27 17:49 | 51.82556 | -0.36376 | 11175 ft | 279 kts | 261° |
| 2026-04-27 17:50 | 51.82108 | -0.39455 | 11955 ft | 283 kts | 259° |
| 2026-04-27 17:50 | 51.80335 | -0.45455 | 12724 ft | 324 kts | 241° |
| 2026-04-27 17:50 | 51.79046 | -0.48572 | 13090 ft | 341 kts | 240° |
| 2026-04-27 17:51 | 51.77698 | -0.51761 | 13777 ft | 346 kts | 240° |
| 2026-04-27 17:51 | 51.76341 | -0.54998 | 14512 ft | 348 kts | 240° |
| 2026-04-27 17:51 | 51.75003 | -0.58237 | 15360 ft | 346 kts | 241° |
| 2026-04-27 17:51 | 51.73686 | -0.61462 | 16217 ft | 344 kts | 241° |
| 2026-04-27 17:52 | 51.72377 | -0.64699 | 16981 ft | 344 kts | 242° |
| 2026-04-27 17:52 | 51.71072 | -0.67941 | 17761 ft | 345 kts | 242° |
| 2026-04-27 17:52 | 51.69765 | -0.71194 | 18527 ft | 346 kts | 242° |
| 2026-04-27 17:52 | 51.68901 | -0.73348 | 18923 ft | 347 kts | 242° |
| 2026-04-27 17:53 | 51.67129 | -0.77765 | 19605 ft | 354 kts | 242° |
| 2026-04-27 17:53 | 51.65783 | -0.81115 | 20140 ft | 359 kts | 242° |
| 2026-04-27 17:53 | 51.64421 | -0.84498 | 20682 ft | 362 kts | 242° |
| 2026-04-27 17:53 | 51.63037 | -0.87932 | 21216 ft | 366 kts | 242° |
| 2026-04-27 17:54 | 51.61645 | -0.91381 | 21733 ft | 370 kts | 242° |
| 2026-04-27 17:54 | 51.60229 | -0.94882 | 22244 ft | 375 kts | 242° |
| 2026-04-27 17:54 | 51.58820 | -0.98362 | 22597 ft | 382 kts | 243° |
| 2026-04-27 17:54 | 51.57348 | -1.02001 | 22873 ft | 392 kts | 243° |
| 2026-04-27 17:55 | 51.55855 | -1.05679 | 23440 ft | 393 kts | 244° |
| 2026-04-27 17:55 | 51.54341 | -1.09397 | 24001 ft | 394 kts | 244° |
| 2026-04-27 17:55 | 51.52825 | -1.13043 | 24399 ft | 402 kts | 239° |
| 2026-04-27 17:55 | 51.50722 | -1.16161 | 24760 ft | 424 kts | 218° |
| 2026-04-27 17:56 | 51.47956 | -1.18008 | 25201 ft | 442 kts | 198° |
| 2026-04-27 17:56 | 51.44847 | -1.18284 | 25596 ft | 458 kts | 176° |
| 2026-04-27 17:56 | 51.41763 | -1.16846 | 25972 ft | 468 kts | 157° |
| 2026-04-27 17:56 | 51.38807 | -1.14586 | 26382 ft | 471 kts | 155° |
| 2026-04-27 17:57 | 51.35857 | -1.12280 | 26732 ft | 475 kts | 155° |
| 2026-04-27 17:57 | 51.32871 | -1.09989 | 27057 ft | 478 kts | 156° |
| 2026-04-27 17:57 | 51.29847 | -1.07737 | 27562 ft | 478 kts | 156° |
| 2026-04-27 17:57 | 51.26827 | -1.05528 | 27957 ft | 480 kts | 156° |
| 2026-04-27 17:58 | 51.23776 | -1.03305 | 28263 ft | 484 kts | 155° |
| 2026-04-27 17:58 | 51.20779 | -1.00793 | 28560 ft | 488 kts | 151° |
| 2026-04-27 17:58 | 51.17833 | -0.98088 | 28913 ft | 491 kts | 150° |
| 2026-04-27 17:58 | 51.14869 | -0.95335 | 29264 ft | 493 kts | 150° |
| 2026-04-27 17:59 | 51.11907 | -0.92574 | 29715 ft | 493 kts | 150° |
| 2026-04-27 17:59 | 51.08951 | -0.89816 | 30156 ft | 493 kts | 150° |
| 2026-04-27 17:59 | 51.05986 | -0.87054 | 30411 ft | 496 kts | 150° |
| 2026-04-27 17:59 | 51.02994 | -0.84272 | 30657 ft | 499 kts | 150° |
| 2026-04-27 18:00 | 51.01010 | -0.82431 | 30846 ft | 499 kts | 150° |
| 2026-04-27 18:00 | 50.98012 | -0.79654 | 31223 ft | 498 kts | 150° |
| 2026-04-27 18:00 | 50.95025 | -0.76893 | 31691 ft | 495 kts | 150° |
| 2026-04-27 18:00 | 50.92061 | -0.74156 | 32177 ft | 491 kts | 150° |
| 2026-04-27 18:01 | 50.89119 | -0.71446 | 32622 ft | 488 kts | 150° |
| 2026-04-27 18:01 | 50.86191 | -0.68751 | 33045 ft | 484 kts | 151° |
| 2026-04-27 18:01 | 50.83308 | -0.66102 | 33712 ft | 476 kts | 151° |
| 2026-04-27 18:01 | 50.80463 | -0.63491 | 34289 ft | 470 kts | 151° |
| 2026-04-27 18:02 | 50.77643 | -0.60908 | 34564 ft | 469 kts | 151° |
| 2026-04-27 18:02 | 50.74805 | -0.58313 | 34688 ft | 473 kts | 151° |
| 2026-04-27 18:02 | 50.71948 | -0.55705 | 34833 ft | 475 kts | 151° |
| 2026-04-27 18:02 | 50.69089 | -0.53098 | 35087 ft | 474 kts | 151° |
| 2026-04-27 18:03 | 50.66237 | -0.50499 | 35378 ft | 473 kts | 151° |
| 2026-04-27 18:03 | 50.63387 | -0.47906 | 35661 ft | 470 kts | 152° |
| 2026-04-27 18:03 | 50.60579 | -0.45353 | 36178 ft | 463 kts | 152° |
| 2026-04-27 18:03 | 50.57795 | -0.42826 | 36459 ft | 462 kts | 152° |
| 2026-04-27 18:04 | 50.54999 | -0.40294 | 36590 ft | 464 kts | 152° |
| 2026-04-27 18:04 | 50.52196 | -0.37761 | 36716 ft | 467 kts | 152° |
| 2026-04-27 18:04 | 50.49377 | -0.35215 | 36848 ft | 468 kts | 152° |
| 2026-04-27 18:04 | 50.46548 | -0.32663 | 37055 ft | 468 kts | 152° |
| 2026-04-27 18:05 | 50.43728 | -0.30123 | 37233 ft | 469 kts | 152° |
| 2026-04-27 18:05 | 50.40890 | -0.27570 | 37202 ft | 471 kts | 152° |
| 2026-04-27 18:05 | 50.35223 | -0.22480 | 37213 ft | 466 kts | 152° |